Allison, Texas
Current Conditions -  °F | °C
As of 12:15 PM on Friday 31 Oct 2014 (Local Time) from KHHF Reporting Station
Clear Clear  
Wind Chill: 52°   Ceiling: Unl
Heat Index: 52°   Visibility: NA
Dew Point: 32°   Wind: 9mph
Humidity: 46%   Direction: 50°NE
Pressure: 30.47"   Gusts: NA
Location:  35.61°N, 100.1°W
Report Text: KHHF 311715Z AUTO 05008KT CLR 11/00 A3047 RMK AO2 T01120000 PWINO
Loading
Personal Weather Stations






























Interactive Weather Map
Tropical Storm Tracking
New forecast layout! Learn more

10-Day Weather Forecast

Advertisements
Track Severe Weather on mobile